Aeroporto :
LOGIN :

Iscrizione | Disclaimer

   EN    FR    IT 

 










Sommario :    VFR   VFR Marginale   IFR   IFR Intensivo   IFR Molto Intensivo
Visibilità : 
Base nubi : 
>= 8 km
>= 3000ft
5 / 8 km
1000 / 3000 ft
1500m / 5 km
500 / 1000 ft
800 / 1500m
200 / 500 ft
< 800m
< 200 ft
Simboli :   Temporali  Nebbia  Neve Forte  Precipitazioni Forti  Vento > 20 kt
SIGMETs :   Varie  Temporali  Ghiacco  Turbolenza  Onda orograficha  Ceneri Vulcaniche






- Altitudine del aeroporto : 240 ft
- Codice IATA : VLC


LEVC - Valencia Manises

ULTIMO METAR :
  • 250530Z 28002KT 9000 FEW015 BKN025 10/09 Q1019 NOSIG

METARs OBSOLETI :
  • 250500Z 26003KT 8000 FEW015 BKN025 10/09 Q1019 NOSIG
  • 250430Z 29003KT 8000 FEW015 BKN025 10/10 Q1019 NOSIG
  • 250400Z VRB01KT 8000 FEW015 BKN025 10/10 Q1019 NOSIG
  • 250330Z 32004KT 8000 FEW012 BKN025 11/10 Q1020 NOSIG
  • 250300Z 30003KT 8000 FEW012 BKN025 11/10 Q1020 NOSIG

TAF TAF LEVC
Valido dal 25 a 06 ore il 26 a 06 ore UTC


250500Z 2506/2606 VRB03KT 9999 BKN025 TX15/2512Z TN09/2506Z
TEMPO 2506/2508 4000 BR BKN009
PROB30
TEMPO 2506/2507 0500 FG VV002
PROB30
TEMPO 2509/2516 RA BKN014



MetMap, La meteo Aeronautica in un colpo d'occhio ! - Copyright ORBIFLY Dicembre 2007 - Disclaimer

ORBIFLY MET'MAP TEAM :

Programmazione e sviluppo : Alexandra Zaïnal
Concezione : Baudouin d'Aumeries
Aiuto per la programmazione : Marc-Olivier Méhu
Supporto tecnico e logistico : Manuel Goepfert
Aiuto per la traduzione : Arnaldo La Scala

Contatto : metmap@orbifly.com




FONTI E CREDITI :

   NOAA